Campiña-No particular awareness of the weather is required.   -   There are no Weather-warnings

Nearby METAR Reports

 

LEZL - Sevilla, Spain
Distance from station: ENE 8km
Updated: 24/08/2019 15:30
Clear
Clear
 Wind from SSW
Wind: SSW 7 km/h
Temperature: 36°C
Dew Point: 5°C
Humidity: 14%
Barometer: 1015 hPa
Summary: Clear
Visibility: greater than 10 km
2019/08/24 13:30 LEZL 241330Z 21004KT CAVOK 36/05 Q1015 NOSIG
LEMO - Morón, Spain
Distance from station: SE 43km
Updated: 24/08/2019 15:00
Clear
Clear
 Wind from SSW
Wind: SSW 2 km/h
Temperature: 35°C
Dew Point: 8°C
Humidity: 19%
Barometer: 1015 hPa
Summary: Clear
Visibility: greater than 10 km
2019/08/24 13:00 LEMO 241300Z 20001KT CAVOK 35/08 Q1015 NOSIG
LEJR - Jeréz, Spain
Distance from station: S 71km
Updated: 24/08/2019 15:30
Clear
Clear
 Wind from SE
Wind: SE 9 km/h
Temperature: 36°C
Dew Point: 10°C
Humidity: 20%
Barometer: 1015 hPa
Summary: Clear
Visibility: greater than 10 km
2019/08/24 13:30 LEJR 241330Z 13005KT 050V200 CAVOK 36/10 Q1015
 
LERT - Rota, Spain
Distance from station: SSW 89km
Updated: 24/08/2019 15:00
Clear
Clear
 Wind from SSE
Wind: SSE 26 km/h
Temperature: 33°C
Dew Point: 15°C
Humidity: 34%
Barometer: 1015 hPa
Summary: Clear
Visibility: greater than 10 km
2019/08/24 13:00 LERT 241300Z 15014KT 110V170 CAVOK 33/15 Q1015 NOSIG
LEMG - Málaga, Spain
Distance from station: ESE 157km
Updated: 24/08/2019 15:30
Few Clouds
Few Clouds
 Wind from ESE
Wind: ESE 17 km/h
Temperature: 28°C
Heat Index: 29°C
Dew Point: 20°C
Humidity: 62%
Barometer: 1018 hPa
Clouds: Few Clouds
Visibility: 10 km
Cloud details: Few Clouds 914 m
2019/08/24 13:30 LEMG 241330Z 12009KT 070V190 9999 FEW030 28/20 Q1018 NOSIG
LEBA - Córdoba, Spain
Distance from station: ENE 115km
Updated: 24/08/2019 15:30
Clear
Clear
 Wind from S
Wind: S 9 km/h
Temperature: 35°C
Dew Point: 13°C
Humidity: 26%
Barometer: 1015 hPa
Summary: Clear
Visibility: greater than 10 km
2019/08/24 13:30 LEBA 241330Z 19005KT 150V280 CAVOK 35/13 Q1015
 
LEGR - Granada, Spain
Distance from station: E 198km
Updated: 24/08/2019 15:30
Few Clouds
Few Clouds
 Wind from varies
Wind: varies 4 km/h
Temperature: 34°C
Dew Point: 10°C
Humidity: 23%
Barometer: 1018 hPa
Clouds: Few Clouds
Visibility: 10 km
Cloud details: Few Clouds 2438 m
2019/08/24 13:30 LEGR 241330Z VRB02KT 9999 FEW080 34/10 Q1018
LEAM - Almería, Spain
Distance from station: E 326km
Updated: 24/08/2019 15:30
Few Clouds
Few Clouds
 Wind from E
Wind: E 28 km/h
Temperature: 32°C
Heat Index: 33°C
Dew Point: 17°C
Humidity: 41%
Barometer: 1016 hPa
Clouds: Few Clouds
Visibility: 10 km
Cloud details: Few Clouds 1067 m
2019/08/24 13:30 LEAM 241330Z 10015KT 050V120 9999 FEW035 32/17 Q1016
LEMD - Madrid/Barajas, Spain
Distance from station: NNE 402km
Updated: 24/08/2019 15:30
Clear
Clear
 Wind from SSW
Wind: SSW 9 km/h
Temperature: 33°C
Dew Point: 6°C
Humidity: 18%
Barometer: 1019 hPa
Summary: Clear
Visibility: greater than 10 km
2019/08/24 13:30 LEMD 241330Z 20005KT CAVOK 33/06 Q1019 NOSIG
 
LEVD - Valladolid, Spain
Distance from station: N 492km
Updated: 24/08/2019 15:30
Clear
Clear
 Wind from SW
Wind: SW 7 km/h
Temperature: 33°C
Dew Point: 4°C
Humidity: 16%
Barometer: 1020 hPa
Summary: Clear
Visibility: greater than 10 km
2019/08/24 13:30 LEVD 241330Z 23004KT CAVOK 33/04 Q1020
LEBL - Barcelona, Spain
Distance from station: NE 816km
Updated: 24/08/2019 15:30
Clear
Clear
 Wind from S
Wind: S 17 km/h
Temperature: 28°C
Heat Index: 29°C
Dew Point: 19°C
Humidity: 58%
Barometer: 1018 hPa
Summary: Clear
Visibility: greater than 10 km
2019/08/24 13:30 LEBL 241330Z 19009KT 150V220 CAVOK 28/19 Q1018 NOSIG
LEVC - Valencia, Spain
Distance from station: ENE 535km
Updated: 24/08/2019 15:30
Few Clouds
Few Clouds
 Wind from SE
Wind: SE 17 km/h
Temperature: 31°C
Heat Index: 31°C
Dew Point: 16°C
Humidity: 40%
Barometer: 1018 hPa
Clouds: Few Clouds
Visibility: 10 km
Cloud details: Few Clouds 1372 m
2019/08/24 13:30 LEVC 241330Z 14009KT 090V190 9999 FEW045 31/16 Q1018 NOSIG